Time;durP1;ratioP1;P1;durP2;ratioP2;P2;SDS_P1;SDS_P2;PMS_P1;PMS_P2;Temp;Humidity;BMP_temperature;BMP_pressure;BME280_temperature;BME280_humidity;BME280_pressure;Samples;Min_cycle;Max_cycle;Signal;HPM_P1;HPM_P2
2024/02/08 00:02:02;;;;;;;15.40;10.90;;;;;;;4.80;100.00;96325.23;110356;1241;68662;-61
2024/02/08 00:04:31;;;;;;;13.00;9.80;;;;;;;4.78;100.00;96328.14;110376;1241;59738;-61
2024/02/08 00:07:01;;;;;;;13.20;10.50;;;;;;;4.74;100.00;96323.20;110375;1238;59666;-61
2024/02/08 00:09:30;;;;;;;19.70;13.30;;;;;;;4.69;100.00;96321.86;110407;1240;70333;-61
2024/02/08 00:11:59;;;;;;;20.70;14.60;;;;;;;4.59;100.00;96322.45;110409;1240;69178;-61
2024/02/08 00:14:27;;;;;;;20.90;15.50;;;;;;;4.46;100.00;96324.06;110416;1242;69977;-61
2024/02/08 00:16:56;;;;;;;22.90;16.40;;;;;;;4.30;100.00;96319.23;110427;1242;59737;-61
2024/02/08 00:19:25;;;;;;;28.30;17.60;;;;;;;4.15;100.00;96320.58;110401;1242;59708;-61
2024/02/08 00:21:55;;;;;;;22.60;15.80;;;;;;;4.03;100.00;96318.70;110426;1242;71363;-61
2024/02/08 00:24:24;;;;;;;25.70;15.80;;;;;;;3.97;100.00;96322.21;110431;1241;69318;-61
2024/02/08 00:26:52;;;;;;;26.10;17.70;;;;;;;3.94;100.00;96316.02;110514;1241;69197;-59
2024/02/08 00:29:24;;;;;;;22.30;16.20;;;;;;;3.94;100.00;96316.20;110363;1238;59751;-60
2024/02/08 00:31:53;;;;;;;19.10;15.40;;;;;;;3.92;100.00;96312.88;110364;1238;59638;-61
2024/02/08 00:34:23;;;;;;;19.80;14.10;;;;;;;3.94;100.00;96317.74;110458;1242;71828;-61
2024/02/08 00:36:52;;;;;;;22.10;16.20;;;;;;;3.94;100.00;96315.00;110368;1241;69678;-61
2024/02/08 00:39:21;;;;;;;28.30;17.00;;;;;;;3.94;100.00;96313.40;110437;1242;68832;-61
2024/02/08 00:41:51;;;;;;;22.40;16.20;;;;;;;3.97;100.00;96318.59;110414;1238;59759;-61
2024/02/08 00:44:20;;;;;;;19.20;14.00;;;;;;;4.00;100.00;96320.80;110425;1238;59708;-61
2024/02/08 00:46:51;;;;;;;23.50;16.40;;;;;;;4.04;100.00;96328.95;110462;1238;71174;-61
2024/02/08 00:49:23;;;;;;;18.80;13.70;;;;;;;4.08;100.00;96328.02;110556;1243;69317;-61
2024/02/08 00:51:52;;;;;;;19.00;12.50;;;;;;;4.15;100.00;96328.52;110428;1240;68428;-61
2024/02/08 00:54:23;;;;;;;21.40;14.80;;;;;;;4.15;100.00;96329.17;110363;1238;59757;-61
2024/02/08 00:56:53;;;;;;;18.50;12.00;;;;;;;4.12;100.00;96331.10;110407;1239;59679;-61
2024/02/08 00:59:22;;;;;;;15.10;11.30;;;;;;;4.08;100.00;96324.26;110367;1240;71161;-61
2024/02/08 01:01:51;;;;;;;20.20;12.40;;;;;;;4.04;100.00;96325.91;110518;1241;67727;-61
2024/02/08 01:04:21;;;;;;;21.30;13.80;;;;;;;3.98;100.00;96324.40;110528;1238;68491;-61
2024/02/08 01:06:51;;;;;;;22.40;14.30;;;;;;;3.89;100.00;96319.27;110402;1242;59697;-61
2024/02/08 01:09:20;;;;;;;18.40;14.20;;;;;;;3.83;100.00;96311.58;110408;1242;59693;-61
2024/02/08 01:11:49;;;;;;;19.50;14.10;;;;;;;3.78;100.00;96305.96;110458;1242;70505;-61
2024/02/08 01:14:21;;;;;;;20.10;14.10;;;;;;;3.76;100.00;96305.23;110371;1241;69809;-61
2024/02/08 01:16:52;;;;;;;18.30;11.10;;;;;;;3.73;100.00;96305.79;110389;1241;69869;-61
2024/02/08 01:19:23;;;;;;;15.50;11.00;;;;;;;3.69;100.00;96305.02;110371;1241;59694;-61
2024/02/08 01:21:52;;;;;;;15.00;10.50;;;;;;;3.65;100.00;96301.50;110429;1242;59667;-61
2024/02/08 01:24:22;;;;;;;17.90;13.40;;;;;;;3.61;100.00;96309.16;110388;1242;71096;-60
2024/02/08 01:26:52;;;;;;;22.40;14.90;;;;;;;3.53;100.00;96311.50;110399;1242;69234;-61
2024/02/08 01:29:24;;;;;;;24.60;15.30;;;;;;;3.45;100.00;96311.83;110394;1240;69084;-61
2024/02/08 01:31:53;;;;;;;18.50;12.70;;;;;;;3.37;100.00;96316.81;110407;1239;59744;-60
2024/02/08 01:34:25;;;;;;;21.00;13.60;;;;;;;3.30;100.00;96318.95;110424;1242;59756;-60
2024/02/08 01:36:55;;;;;;;24.80;17.20;;;;;;;3.23;100.00;96319.59;110440;1241;72188;-61
2024/02/08 01:39:24;;;;;;;24.60;16.20;;;;;;;3.18;100.00;96317.83;110388;1239;69209;-61
2024/02/08 01:41:53;;;;;;;22.80;14.70;;;;;;;3.13;100.00;96311.77;110360;1238;69240;-61
2024/02/08 01:44:22;;;;;;;21.70;14.30;;;;;;;3.08;100.00;96313.95;110380;1240;60119;-60
2024/02/08 01:46:51;;;;;;;20.00;14.10;;;;;;;3.06;100.00;96311.14;110477;1244;59666;-60
2024/02/08 01:49:23;;;;;;;21.90;13.20;;;;;;;3.03;100.00;96307.36;110452;1249;71926;-61
2024/02/08 01:52:03;;;;;;;16.70;12.30;;;;;;;2.99;100.00;96308.27;110449;1240;69761;-61
2024/02/08 01:54:33;;;;;;;15.00;10.50;;;;;;;2.97;100.00;96306.00;110394;1244;69295;-60
2024/02/08 01:57:03;;;;;;;15.90;10.50;;;;;;;3.02;100.00;96308.63;110402;1240;59787;-61
2024/02/08 01:59:32;;;;;;;;;;;;;;;3.03;100.00;96309.43;110406;1240;59773;-61
2024/02/08 02:02:02;;;;;;;21.60;14.70;;;;;;;2.96;100.00;96305.87;110375;1243;71283;-61
2024/02/08 02:04:31;;;;;;;23.00;14.20;;;;;;;2.94;100.00;96304.30;110439;1240;69212;-60
2024/02/08 02:07:02;;;;;;;20.60;13.60;;;;;;;2.96;100.00;96298.30;110417;1243;69768;-61
2024/02/08 02:09:31;;;;;;;20.30;12.70;;;;;;;3.00;100.00;96299.11;110390;1242;59711;-61
2024/02/08 02:12:15;;;;;;;16.80;11.10;;;;;;;3.04;100.00;96294.89;110423;1241;59668;-61
2024/02/08 02:14:44;;;;;;;15.00;10.60;;;;;;;3.11;100.00;96297.42;110416;1240;71781;-60
2024/02/08 02:17:20;;;;;;;16.60;10.20;;;;;;;3.18;100.00;96301.61;110408;1239;68616;-61
2024/02/08 02:19:49;;;;;;;13.20;9.30;;;;;;;3.32;100.00;96302.65;110336;1241;69484;-63
2024/02/08 02:22:20;;;;;;;12.50;9.10;;;;;;;3.46;100.00;96303.70;110410;1242;59747;-61
2024/02/08 02:24:49;;;;;;;14.20;9.40;;;;;;;3.63;100.00;96301.25;110458;1241;59683;-61
2024/02/08 02:27:18;;;;;;;17.50;12.70;;;;;;;3.84;100.00;96291.29;110395;1243;71955;-61
2024/02/08 02:29:52;;;;;;;16.40;10.20;;;;;;;4.04;100.00;96291.42;110422;1239;69802;-61
2024/02/08 02:32:22;;;;;;;15.60;10.50;;;;;;;4.22;100.00;96290.98;110437;1240;67759;-62
2024/02/08 02:34:53;;;;;;;13.60;9.70;;;;;;;4.34;100.00;96295.14;110437;1241;59689;-62
2024/02/08 02:37:22;;;;;;;14.90;9.60;;;;;;;4.47;100.00;96296.16;110443;1240;59687;-62
2024/02/08 02:39:52;;;;;;;11.60;9.10;;;;;;;4.58;100.00;96294.27;110415;1242;70949;-61
2024/02/08 02:42:21;;;;;;;18.00;12.00;;;;;;;4.65;100.00;96290.86;110483;1242;68241;-61
2024/02/08 02:44:51;;;;;;;18.60;13.20;;;;;;;4.77;100.00;96289.73;110472;1243;68621;-61
2024/02/08 02:47:25;;;;;;;17.80;12.50;;;;;;;4.89;100.00;96290.63;110441;1238;59722;-61
2024/02/08 02:49:58;;;;;;;17.30;11.70;;;;;;;5.04;100.00;96290.30;110489;1242;59730;-63
2024/02/08 02:52:27;;;;;;;15.20;10.90;;;;;;;5.08;100.00;96295.53;110485;1242;71257;-61
2024/02/08 02:54:56;;;;;;;17.50;12.20;;;;;;;5.10;100.00;96293.81;110466;1239;69172;-61
2024/02/08 02:57:25;;;;;;;17.10;11.50;;;;;;;5.22;100.00;96294.10;110426;1238;69102;-61
2024/02/08 02:59:59;;;;;;;16.20;11.70;;;;;;;5.29;100.00;96292.02;110426;1243;59759;-61
2024/02/08 03:02:29;;;;;;;14.10;9.30;;;;;;;5.30;100.00;96294.56;110543;1241;59692;-62
2024/02/08 03:04:57;;;;;;;13.40;10.00;;;;;;;5.29;100.00;96289.45;110440;1240;71620;-62
2024/02/08 03:07:28;;;;;;;15.60;10.40;;;;;;;5.29;100.00;96289.42;110400;1239;69809;-62
2024/02/08 03:09:57;;;;;;;15.50;10.60;;;;;;;5.35;100.00;96295.58;110390;1243;69742;-62
2024/02/08 03:12:26;;;;;;;15.60;9.80;;;;;;;5.38;100.00;96294.15;110438;1240;59661;-61
2024/02/08 03:15:00;;;;;;;14.70;9.50;;;;;;;5.36;100.00;96296.34;110479;1242;59808;-61
2024/02/08 03:17:32;;;;;;;16.90;10.20;;;;;;;5.36;100.00;96299.45;110536;1241;71174;-62
2024/02/08 03:20:04;;;;;;;19.80;12.70;;;;;;;5.40;100.00;96299.36;110530;1242;69037;-61
2024/02/08 03:22:35;;;;;;;14.30;10.20;;;;;;;5.44;100.00;96302.23;110521;1239;68428;-61
2024/02/08 03:25:05;;;;;;;12.40;9.40;;;;;;;5.49;100.00;96297.88;110534;1242;59837;-62
2024/02/08 03:27:34;;;;;;;12.60;9.30;;;;;;;5.51;100.00;96296.35;110552;1239;59693;-61
2024/02/08 03:30:04;;;;;;;10.80;8.30;;;;;;;5.51;100.00;96297.04;110563;1240;71996;-61
2024/02/08 03:32:35;;;;;;;10.30;7.70;;;;;;;5.49;100.00;96299.63;110568;1243;69952;-61
2024/02/08 03:35:05;;;;;;;12.10;7.80;;;;;;;5.44;100.00;96301.50;110546;1242;69723;-61
2024/02/08 03:37:34;;;;;;;11.80;7.10;;;;;;;5.43;100.00;96300.06;110552;1243;59741;-61
2024/02/08 03:40:04;;;;;;;10.30;7.40;;;;;;;5.45;100.00;96302.83;110558;1242;59679;-61
2024/02/08 03:42:33;;;;;;;13.70;8.60;;;;;;;5.50;100.00;96302.28;110603;1238;71810;-61
2024/02/08 03:45:06;;;;;;;12.40;8.60;;;;;;;5.52;100.00;96301.11;110565;1243;68616;-61
2024/02/08 03:47:37;;;;;;;12.30;7.90;;;;;;;5.54;100.00;96301.52;110524;1243;69933;-61
2024/02/08 03:50:11;;;;;;;12.40;9.10;;;;;;;5.62;100.00;96298.84;110537;1242;59747;-61
2024/02/08 03:52:40;;;;;;;13.60;9.20;;;;;;;5.77;100.00;96298.89;110386;1244;59668;-61
2024/02/08 03:55:09;;;;;;;13.70;9.20;;;;;;;5.87;100.00;96293.80;110397;1242;71309;-61
2024/02/08 03:57:38;;;;;;;12.10;9.00;;;;;;;5.95;100.00;96291.56;110550;1243;69851;-62
2024/02/08 04:00:13;;;;;;;13.20;9.20;;;;;;;5.99;100.00;96291.94;110395;1241;69117;-61
2024/02/08 04:02:44;;;;;;;12.80;9.30;;;;;;;6.02;100.00;96289.13;110350;1244;59727;-62
2024/02/08 04:05:24;;;;;;;12.50;9.10;;;;;;;6.05;100.00;96288.92;110584;1241;59668;-61
2024/02/08 04:07:59;;;;;;;13.50;8.30;;;;;;;6.15;100.00;96287.52;110460;1242;71704;-62
2024/02/08 04:55:03;;;;;;;11.30;8.60;;;;;;;6.18;100.00;96292.98;110401;1243;69243;-61
2024/02/08 04:57:35;;;;;;;11.60;9.20;;;;;;;6.12;100.00;96292.03;110375;1247;59744;-61
2024/02/08 05:00:05;;;;;;;11.10;8.40;;;;;;;6.07;100.00;96292.71;110420;1248;59687;-62
2024/02/08 05:02:34;;;;;;;13.00;8.90;;;;;;;6.03;100.00;96290.61;110407;1241;71758;-62
2024/02/08 05:05:07;;;;;;;12.40;8.70;;;;;;;5.98;100.00;96290.47;110377;1242;69850;-62
2024/02/08 05:07:36;;;;;;;12.50;9.40;;;;;;;5.94;100.00;96292.84;110347;1243;69925;-61
2024/02/08 05:10:08;;;;;;;12.10;8.70;;;;;;;5.93;100.00;96293.09;110477;1240;59714;-62
2024/02/08 05:12:37;;;;;;;12.00;8.40;;;;;;;5.91;100.00;96291.80;110410;1241;59678;-61
2024/02/08 05:15:13;;;;;;;12.20;9.30;;;;;;;5.87;100.00;96294.88;110383;1243;71187;-62
2024/02/08 05:17:43;;;;;;;13.00;8.60;;;;;;;5.82;100.00;96292.42;110383;1245;69694;-62
2024/02/08 05:20:12;;;;;;;12.90;8.70;;;;;;;5.79;100.00;96295.63;110301;1241;69164;-62
2024/02/08 05:22:42;;;;;;;11.40;7.60;;;;;;;5.75;100.00;96299.21;110470;1247;59744;-62
2024/02/08 05:25:11;;;;;;;11.70;8.00;;;;;;;5.70;100.00;96301.04;110423;1243;59677;-61
2024/02/08 05:27:40;;;;;;;10.50;8.60;;;;;;;5.65;100.00;96302.10;110429;1242;71315;-61
2024/02/08 05:30:14;;;;;;;12.10;7.90;;;;;;;5.63;100.00;96298.58;110395;1243;69661;-62
2024/02/08 05:32:43;;;;;;;11.70;8.70;;;;;;;5.67;100.00;96298.00;110399;1238;69211;-61
2024/02/08 05:35:13;;;;;;;11.00;7.80;;;;;;;5.74;100.00;96296.66;110428;1242;59757;-61
2024/02/08 05:37:42;;;;;;;10.10;7.80;;;;;;;5.76;100.00;96298.38;110500;1243;59733;-61
2024/02/08 05:40:14;;;;;;;10.40;7.60;;;;;;;5.72;100.00;96301.83;110492;1242;71947;-61
2024/02/08 05:42:43;;;;;;;8.80;6.70;;;;;;;5.66;100.00;96302.59;110530;1241;69615;-62
2024/02/08 05:45:21;;;;;;;10.40;7.20;;;;;;;5.64;100.00;96304.45;110378;1241;69598;-61
2024/02/08 05:47:50;;;;;;;10.20;7.10;;;;;;;5.64;100.00;96302.73;110469;1241;59744;-61
2024/02/08 05:50:21;;;;;;;10.30;7.70;;;;;;;5.64;100.00;96307.04;110382;1242;59629;-61
2024/02/08 05:52:51;;;;;;;10.00;6.90;;;;;;;5.64;100.00;96308.92;110374;1240;71207;-62
2024/02/08 05:55:20;;;;;;;10.80;7.40;;;;;;;5.66;100.00;96307.77;110385;1238;69158;-61
2024/02/08 05:57:50;;;;;;;8.20;6.00;;;;;;;5.66;100.00;96307.07;110401;1243;69099;-62
2024/02/08 06:00:32;;;;;;;8.70;6.80;;;;;;;5.69;100.00;96306.34;110562;1240;59728;-62
2024/02/08 06:03:05;;;;;;;12.10;7.40;;;;;;;5.76;100.00;96305.36;110394;1242;59657;-62
2024/02/08 06:05:34;;;;;;;10.00;7.70;;;;;;;5.83;100.00;96301.38;110335;1242;71952;-62
2024/02/08 06:08:11;;;;;;;10.60;7.80;;;;;;;5.93;100.00;96304.48;110472;1241;69176;-62
2024/02/08 06:10:45;;;;;;;11.70;8.70;;;;;;;5.98;100.00;96305.68;110352;1242;69828;-62
2024/02/08 06:13:15;;;;;;;11.30;8.90;;;;;;;5.98;100.00;96307.39;110437;1242;59676;-62
2024/02/08 06:15:47;;;;;;;12.60;7.90;;;;;;;5.95;100.00;96307.96;110053;1238;513143;-62
2024/02/08 06:18:30;;;;;;;12.60;9.30;;;;;;;5.90;100.00;96308.98;110460;1240;70842;-62
2024/02/08 06:21:12;;;;;;;13.60;9.50;;;;;;;5.91;100.00;96309.84;110408;1243;69126;-62
2024/02/08 06:23:45;;;;;;;13.90;9.20;;;;;;;5.80;100.00;96309.00;110543;1242;69408;-62
2024/02/08 06:28:53;;;;;;;13.50;8.90;;;;;;;5.72;100.00;96312.15;110492;1242;59688;-62
2024/02/08 06:31:29;;;;;;;16.40;9.90;;;;;;;5.76;100.00;96313.59;110406;1242;70868;-62
2024/02/08 06:34:40;;;;;;;12.80;9.20;;;;;;;5.78;100.00;96316.75;110412;1241;69198;-61
2024/02/08 06:37:16;;;;;;;11.60;8.80;;;;;;;5.85;100.00;96321.24;110347;1241;69255;-61
2024/02/08 06:39:55;;;;;;;15.20;10.40;;;;;;;5.90;100.00;96322.85;110364;1248;59723;-60
2024/02/08 06:42:44;;;;;;;12.30;9.50;;;;;;;5.92;100.00;96324.60;110376;1240;59686;-60
2024/02/08 06:45:48;;;;;;;12.20;8.90;;;;;;;6.00;100.00;96324.56;110369;1240;72230;-61
2024/02/08 07:38:53;;;;;;;12.10;8.40;;;;;;;11.37;95.19;96361.45;110405;1242;59672;-61
2024/02/08 07:41:23;;;;;;;12.10;9.00;;;;;;;11.86;89.82;96359.89;110459;1241;70171;-61
2024/02/08 07:43:55;;;;;;;13.30;9.90;;;;;;;12.16;87.73;96353.30;110412;1245;69094;-60
2024/02/08 07:46:29;;;;;;;11.70;9.20;;;;;;;12.36;87.39;96350.10;110379;1238;69675;-62
2024/02/08 07:49:04;;;;;;;11.40;9.20;;;;;;;12.42;86.21;96349.93;110352;1240;59748;-61
2024/02/08 07:51:35;;;;;;;14.10;9.50;;;;;;;12.21;85.11;96349.58;110404;1242;59728;-62
2024/02/08 07:54:20;;;;;;;13.30;9.20;;;;;;;11.73;85.58;96351.67;110381;1242;71267;-60
2024/02/08 07:56:53;;;;;;;11.00;8.60;;;;;;;11.91;87.36;96354.34;110377;1241;69646;-60
2024/02/08 07:59:26;;;;;;;11.50;9.20;;;;;;;11.78;87.84;96355.40;110457;1240;70025;-62
2024/02/08 08:01:57;;;;;;;10.70;7.60;;;;;;;11.72;87.87;96359.59;110402;1241;59737;-62
2024/02/08 08:07:23;;;;;;;9.80;6.50;;;;;;;11.20;90.17;96360.62;110378;1238;72042;-61
2024/02/08 08:10:25;;;;;;;8.50;6.30;;;;;;;11.32;90.02;96359.16;110393;1240;68672;-61
2024/02/08 08:12:46;;;;;;;9.10;5.70;;;;;;;10.88;90.61;96356.20;110395;1238;69030;-61
2024/02/08 08:15:16;;;;;;;7.40;5.40;;;;;;;10.88;90.33;96355.18;110317;1240;59674;-61
2024/02/08 08:17:59;;;;;;;;;;;;;;;10.78;91.66;96353.64;110357;1241;59669;-61
2024/02/08 08:23:25;;;;;;;7.60;5.10;;;;;;;10.81;91.26;96350.53;110417;1240;69211;-61
2024/02/08 08:28:52;;;;;;;9.10;5.80;;;;;;;11.00;89.96;96352.61;110414;1241;59742;-62
2024/02/08 08:31:46;;;;;;;8.80;5.60;;;;;;;11.00;88.89;96356.33;110480;1238;59734;-61
2024/02/08 08:37:03;;;;;;;6.80;5.50;;;;;;;11.04;89.05;96351.98;110441;1238;69097;-63
2024/02/08 08:42:23;;;;;;;6.70;5.20;;;;;;;11.27;87.97;96342.35;110371;1238;59726;-61
2024/02/08 08:44:57;;;;;;;9.20;5.80;;;;;;;11.30;87.72;96347.68;110359;1241;59657;-61
2024/02/08 08:47:28;;;;;;;8.50;5.60;;;;;;;11.37;87.55;96347.88;110388;1242;71747;-61
2024/02/08 08:49:57;;;;;;;;;;;;;;;11.44;86.22;96344.03;110380;1241;68879;-61
2024/02/08 08:52:26;;;;;;;8.40;5.20;;;;;;;11.30;87.40;96350.92;110381;1241;69257;-63
2024/02/08 08:55:30;;;;;;;7.40;5.50;;;;;;;11.39;87.15;96352.58;110468;1241;59732;-61
2024/02/08 08:57:54;;;;;;;8.90;6.10;;;;;;;11.42;87.08;96355.09;110394;1241;59731;-60
2024/02/08 09:00:32;;;;;;;8.20;5.50;;;;;;;11.38;85.63;96358.23;110461;1242;71158;-61
2024/02/08 09:03:05;;;;;;;8.40;5.00;;;;;;;11.36;86.39;96353.54;110548;1240;69215;-61
2024/02/08 09:05:36;;;;;;;8.20;5.60;;;;;;;11.38;85.79;96352.48;110433;1248;69845;-63
2024/02/08 09:08:09;;;;;;;7.00;5.60;;;;;;;11.35;86.26;96354.19;110411;1238;59672;-63
2024/02/08 09:10:41;;;;;;;6.30;5.10;;;;;;;11.34;85.75;96352.68;110382;1238;59729;-61
2024/02/08 09:13:16;;;;;;;7.90;5.40;;;;;;;11.44;86.19;96355.71;110459;1241;71777;-61
2024/02/08 09:15:48;;;;;;;9.40;5.80;;;;;;;11.48;85.39;96355.40;110423;1241;69542;-61
2024/02/08 09:18:17;;;;;;;8.50;6.00;;;;;;;11.49;85.75;96357.43;110426;1238;69054;-61
2024/02/08 09:20:47;;;;;;;10.10;6.60;;;;;;;11.60;85.22;96358.46;110406;1242;59789;-61
2024/02/08 09:23:17;;;;;;;8.50;6.00;;;;;;;11.46;85.79;96359.59;110409;1241;59700;-61
2024/02/08 09:25:47;;;;;;;7.80;5.10;;;;;;;11.56;84.89;96361.97;110399;1242;71267;-61
2024/02/08 09:28:35;;;;;;;7.70;5.10;;;;;;;11.55;82.71;96359.23;110349;1241;69908;-61
2024/02/08 09:31:12;;;;;;;6.30;4.70;;;;;;;11.52;82.17;96363.19;110509;1238;68496;-61
2024/02/08 09:33:47;;;;;;;6.40;5.10;;;;;;;11.56;80.82;96355.38;110523;1247;59760;-61
2024/02/08 09:36:17;;;;;;;8.00;5.00;;;;;;;11.74;79.20;96361.11;110354;1240;59667;-61
2024/02/08 09:38:50;;;;;;;7.90;5.10;;;;;;;11.92;77.90;96361.40;110406;1242;71919;-61
2024/02/08 09:41:27;;;;;;;8.20;5.40;;;;;;;11.95;78.25;96360.27;110391;1244;69890;-61
2024/02/08 09:44:00;;;;;;;10.30;5.90;;;;;;;11.88;78.71;96365.27;110372;1241;69732;-61
2024/02/08 09:49:13;;;;;;;8.00;5.40;;;;;;;11.95;79.17;96364.05;110436;1243;59687;-61
2024/02/08 09:52:16;;;;;;;8.80;5.60;;;;;;;11.99;77.53;96356.77;110504;1241;71821;-61
2024/02/08 09:54:37;;;;;;;6.70;5.50;;;;;;;11.99;77.45;96354.41;110566;1241;69046;-61
2024/02/08 09:57:21;;;;;;;7.50;5.20;;;;;;;11.90;76.62;96351.28;110366;1241;67745;-61
2024/02/08 10:00:06;;;;;;;8.40;5.50;;;;;;;11.88;77.26;96358.16;110457;1240;59672;-61
2024/02/08 10:02:54;;;;;;;8.20;5.30;;;;;;;11.66;78.16;96351.98;110527;1240;59675;-61
2024/02/08 10:05:50;;;;;;;8.20;5.10;;;;;;;11.69;77.19;96353.73;110418;1241;70987;-62
2024/02/08 10:08:34;;;;;;;7.40;5.50;;;;;;;11.69;75.74;96355.16;110390;1239;68756;-61
2024/02/08 10:11:23;;;;;;;8.50;5.10;;;;;;;11.67;76.33;96351.79;110457;1238;69982;-61
2024/02/08 10:14:01;;;;;;;6.30;4.70;;;;;;;11.68;74.15;96349.55;110456;1241;59689;-61
2024/02/08 10:16:47;;;;;;;7.30;4.80;;;;;;;11.77;74.61;96348.84;110505;1241;59666;-61
2024/02/08 10:19:35;;;;;;;6.20;4.70;;;;;;;11.91;74.76;96350.13;110539;1241;71887;-61
2024/02/08 10:22:17;;;;;;;7.70;5.60;;;;;;;11.97;74.28;96346.23;110528;1241;69887;-61
2024/02/08 10:27:22;;;;;;;11.60;7.10;;;;;;;12.08;75.83;96335.61;110357;1241;59746;-61
2024/02/08 10:29:52;;;;;;;8.60;7.10;;;;;;;12.12;77.66;96335.43;110349;1241;59675;-61
2024/02/08 10:32:21;;;;;;;8.20;6.40;;;;;;;12.08;79.63;96336.70;110383;1241;71358;-62
2024/02/08 10:34:52;;;;;;;10.70;6.30;;;;;;;12.07;80.87;96333.94;110495;1248;69030;-62
2024/02/08 10:40:29;;;;;;;7.90;5.80;;;;;;;12.15;78.88;96334.23;110327;1245;59722;-61
2024/02/08 10:42:59;;;;;;;8.40;5.50;;;;;;;12.01;79.12;96328.96;110385;1240;59736;-61
2024/02/08 10:45:43;;;;;;;7.80;5.70;;;;;;;11.89;79.44;96331.17;110389;1242;71622;-61
2024/02/08 10:48:16;;;;;;;7.00;6.00;;;;;;;12.00;79.47;96323.12;110411;1238;69566;-62
2024/02/08 10:50:49;;;;;;;7.30;5.50;;;;;;;11.93;79.18;96322.92;110425;1239;68972;-61
2024/02/08 10:53:43;;;;;;;9.20;6.60;;;;;;;11.88;79.59;96328.59;110505;1238;60194;-62
2024/02/08 10:56:14;;;;;;;9.70;6.30;;;;;;;11.87;78.59;96320.52;110418;1240;59679;-62
2024/02/08 10:59:00;;;;;;;9.10;6.60;;;;;;;11.89;78.87;96319.29;110391;1239;70757;-63
2024/02/08 11:01:33;;;;;;;9.40;6.10;;;;;;;11.81;79.42;96314.66;110418;1244;69973;-61
2024/02/08 11:04:20;;;;;;;7.00;5.90;;;;;;;11.78;79.31;96314.85;110244;1241;69181;-61
2024/02/08 11:09:44;;;;;;;9.70;7.40;;;;;;;11.70;79.60;96313.52;110496;1241;59688;-61
2024/02/08 11:12:29;;;;;;;9.20;7.10;;;;;;;11.66;79.83;96310.98;110481;1241;71896;-61
2024/02/08 11:15:14;;;;;;;8.30;7.10;;;;;;;11.67;79.71;96309.31;110525;1238;69674;-62
2024/02/08 11:17:49;;;;;;;9.50;6.30;;;;;;;11.54;80.48;96306.50;110487;1241;68486;-62
2024/02/08 11:20:42;;;;;;;10.90;7.00;;;;;;;11.46;81.90;96300.95;110489;1244;59737;-61
2024/02/08 11:23:22;;;;;;;7.30;6.00;;;;;;;11.43;82.82;96303.39;110409;1240;59745;-60
2024/02/08 11:25:53;;;;;;;8.50;6.10;;;;;;;11.36;83.68;96296.16;110504;1240;71367;-61
2024/02/08 11:28:43;;;;;;;7.50;5.80;;;;;;;11.46;83.89;96293.26;110533;1240;69802;-63
2024/02/08 11:31:13;;;;;;;7.60;5.90;;;;;;;11.53;83.29;96293.30;110456;1241;69746;-61
2024/02/08 11:33:42;;;;;;;;;;;;;;;11.60;82.69;96284.82;110406;1241;59685;-62
2024/02/08 11:36:13;;;;;;;7.90;6.60;;;;;;;11.45;83.95;96287.23;110489;1238;59692;-62
2024/02/08 11:38:53;;;;;;;7.00;5.60;;;;;;;11.58;82.99;96285.19;110600;1241;71844;-62
2024/02/08 11:41:25;;;;;;;8.60;5.60;;;;;;;11.60;83.13;96283.61;110408;1239;69782;-62
2024/02/08 11:44:02;;;;;;;7.20;6.20;;;;;;;11.56;83.01;96281.70;110414;1241;69972;-62
2024/02/08 11:46:45;;;;;;;7.50;5.20;;;;;;;11.52;82.98;96277.14;110340;1242;59698;-63
2024/02/08 11:49:31;;;;;;;6.70;6.00;;;;;;;11.52;83.87;96274.38;110363;1241;59727;-61
2024/02/08 11:52:11;;;;;;;8.50;5.90;;;;;;;11.45;84.02;96279.63;110379;1241;72536;-61
2024/02/08 11:54:41;;;;;;;7.80;5.80;;;;;;;11.37;84.72;96280.52;110401;1238;69718;-61
2024/02/08 11:57:11;;;;;;;;;;;;;;;11.26;85.44;96278.65;110365;1241;69858;-61
2024/02/08 11:59:45;;;;;;;7.90;6.00;;;;;;;11.23;85.83;96275.35;110339;1240;59729;-61
2024/02/08 12:02:16;;;;;;;8.60;6.10;;;;;;;11.24;86.13;96272.55;110430;1241;59691;-61
2024/02/08 12:04:52;;;;;;;9.40;6.30;;;;;;;11.27;86.69;96276.20;110410;1241;70952;-61
2024/02/08 12:07:21;;;;;;;8.80;6.30;;;;;;;11.16;87.66;96276.73;110406;1241;69712;-61
2024/02/08 12:10:09;;;;;;;8.20;6.60;;;;;;;11.09;88.11;96277.41;110467;1241;69672;-61
2024/02/08 12:12:41;;;;;;;8.30;5.90;;;;;;;11.14;88.22;96279.55;110497;1241;60058;-62
2024/02/08 12:15:12;;;;;;;7.00;6.30;;;;;;;11.30;87.81;96275.77;110369;1241;59659;-62
2024/02/08 12:17:48;;;;;;;8.90;6.60;;;;;;;11.37;88.11;96274.13;110385;1239;71225;-62
2024/02/08 12:20:18;;;;;;;7.00;5.80;;;;;;;11.48;87.74;96262.92;110405;1241;68247;-61
2024/02/08 12:22:54;;;;;;;8.60;5.00;;;;;;;11.78;85.42;96256.70;110421;1239;69241;-62
2024/02/08 12:25:27;;;;;;;4.00;3.60;;;;;;;12.22;82.01;96252.52;110418;1238;59735;-62
2024/02/08 12:28:04;;;;;;;5.50;4.00;;;;;;;12.69;78.04;96247.01;110426;1241;59637;-62
2024/02/08 12:30:39;;;;;;;5.60;4.50;;;;;;;13.46;74.89;96240.98;110463;1241;72000;-62
2024/02/08 12:33:10;;;;;;;6.90;4.90;;;;;;;14.04;71.68;96236.52;110603;1241;70226;-62
2024/02/08 12:35:40;;;;;;;6.40;4.50;;;;;;;14.25;69.59;96245.19;110269;1241;68559;-61
2024/02/08 12:38:16;;;;;;;5.00;4.30;;;;;;;14.32;68.62;96242.98;110428;1241;59872;-61
2024/02/08 12:40:47;;;;;;;6.60;4.90;;;;;;;13.49;71.41;96244.19;110340;1241;59659;-61
2024/02/08 12:43:19;;;;;;;7.20;4.10;;;;;;;13.09;72.77;96242.42;110333;1241;71325;-63
2024/02/08 12:45:54;;;;;;;5.80;4.80;;;;;;;12.30;76.86;96243.35;110362;1241;68414;-62
2024/02/08 12:48:23;;;;;;;6.10;4.40;;;;;;;12.27;77.16;96244.02;110379;1240;68501;-61
2024/02/08 12:50:54;;;;;;;6.20;4.80;;;;;;;12.13;78.08;96244.65;110375;1239;59743;-62
2024/02/08 12:53:24;;;;;;;5.60;4.70;;;;;;;11.68;81.46;96243.20;110524;1241;59658;-62
2024/02/08 12:55:58;;;;;;;7.00;5.30;;;;;;;11.65;81.91;96249.61;110360;1240;71641;-61
2024/02/08 12:58:26;;;;;;;6.50;5.10;;;;;;;11.63;81.56;96244.25;110437;1241;70231;-62
2024/02/08 13:01:04;;;;;;;6.60;4.90;;;;;;;11.52;81.98;96240.89;110397;1241;69127;-62
2024/02/08 13:03:37;;;;;;;6.50;5.60;;;;;;;11.61;81.55;96238.80;110416;1241;59683;-62
2024/02/08 13:06:11;;;;;;;6.90;5.20;;;;;;;11.80;80.68;96233.65;110331;1241;59705;-62
2024/02/08 13:08:45;;;;;;;8.30;5.20;;;;;;;11.74;81.53;96233.64;110361;1242;71458;-62
2024/02/08 13:11:20;;;;;;;8.40;6.50;;;;;;;11.86;81.51;96235.61;110390;1242;69271;-62
2024/02/08 13:13:49;;;;;;;6.00;5.10;;;;;;;12.09;80.25;96238.19;110343;1238;69821;-62
2024/02/08 13:16:19;;;;;;;7.10;5.60;;;;;;;12.21;80.07;96238.31;110444;1245;59746;-62
2024/02/08 13:18:54;;;;;;;7.50;6.10;;;;;;;12.33;79.34;96238.02;110412;1239;59649;-62
2024/02/08 13:21:24;;;;;;;8.50;6.40;;;;;;;12.46;78.43;96246.80;110397;1241;70629;-61
2024/02/08 13:23:55;;;;;;;7.80;6.00;;;;;;;12.78;77.51;96235.77;110359;1241;69210;-61
2024/02/08 13:26:25;;;;;;;8.00;5.00;;;;;;;13.69;73.76;96221.93;110339;1246;69915;-61
2024/02/08 13:29:04;;;;;;;6.70;5.70;;;;;;;14.39;70.22;96223.73;110369;1241;59749;-61
2024/02/08 13:31:38;;;;;;;7.50;6.80;;;;;;;14.33;68.81;96219.94;110372;1241;59604;-60
2024/02/08 13:34:09;;;;;;;8.50;7.50;;;;;;;14.24;69.24;96219.16;110309;1241;71975;-63
2024/02/08 13:36:43;;;;;;;7.90;5.60;;;;;;;14.05;69.47;96217.00;110316;1241;69079;-62
2024/02/08 13:39:12;;;;;;;7.80;6.20;;;;;;;12.76;74.01;96223.93;110393;1238;69858;-61
2024/02/08 13:41:46;;;;;;;8.20;6.10;;;;;;;12.48;75.94;96218.35;110315;1241;59746;-61
2024/02/08 13:44:15;;;;;;;8.60;5.80;;;;;;;12.41;77.61;96218.11;110406;1240;59733;-60
2024/02/08 13:46:51;;;;;;;8.50;6.90;;;;;;;12.44;77.66;96221.00;110463;1240;70067;-61
2024/02/08 13:49:24;;;;;;;7.30;6.20;;;;;;;12.18;78.87;96215.32;110344;1241;68849;-61
2024/02/08 13:51:54;;;;;;;8.10;6.50;;;;;;;11.96;80.26;96217.02;110293;1241;69380;-61